Terminal Aerodrome Forecast
Issued by NWS

Home | Current Version | Previous Version | Text Only | Print | Product List | Glossary On
Versions: 1 2 3 4 5 6 7 8 9 10 11 12 13 14 15
000
FTUS45 KTFX 310206 AAA
TAFBZN
TAF AMD
KBZN 310206Z 3102/3124 33015G25KT P6SM SCT110
     FM310600 VRB06KT P6SM SCT090
     FM312000 28011KT P6SM FEW250=

USA.gov is the U.S. government's official web portal to all federal, state and local government web resources and services.